sensor_id;sensor_type;location;lat;lon;timestamp;pressure;altitude;pressure_sealevel;temperature;humidity
64521;BME280;50896;46.714;17.322;2023-02-18T00:01:31;101016.88;;;7.40;100.00
64521;BME280;50896;46.714;17.322;2023-02-18T00:03:59;101021.91;;;7.43;100.00
64521;BME280;50896;46.714;17.322;2023-02-18T00:06:31;101025.28;;;7.45;100.00
64521;BME280;50896;46.714;17.322;2023-02-18T00:08:59;101013.63;;;7.36;100.00
64521;BME280;50896;46.714;17.322;2023-02-18T00:11:29;101019.97;;;7.45;100.00
64521;BME280;50896;46.714;17.322;2023-02-18T00:13:59;101025.13;;;7.47;100.00
64521;BME280;50896;46.714;17.322;2023-02-18T00:16:28;101025.88;;;7.38;100.00
64521;BME280;50896;46.714;17.322;2023-02-18T00:19:00;101009.31;;;7.35;100.00
64521;BME280;50896;46.714;17.322;2023-02-18T00:21:28;101021.94;;;7.32;100.00
64521;BME280;50896;46.714;17.322;2023-02-18T00:23:56;101028.72;;;7.25;100.00
64521;BME280;50896;46.714;17.322;2023-02-18T00:26:23;101004.91;;;7.25;100.00
64521;BME280;50896;46.714;17.322;2023-02-18T00:28:50;101020.25;;;7.31;100.00
64521;BME280;50896;46.714;17.322;2023-02-18T00:31:22;101002.75;;;7.18;100.00
64521;BME280;50896;46.714;17.322;2023-02-18T00:33:50;101002.31;;;7.13;100.00
64521;BME280;50896;46.714;17.322;2023-02-18T00:36:20;101021.50;;;7.15;100.00
64521;BME280;50896;46.714;17.322;2023-02-18T00:38:50;101008.03;;;7.18;100.00
64521;BME280;50896;46.714;17.322;2023-02-18T00:41:19;100994.84;;;7.07;100.00
64521;BME280;50896;46.714;17.322;2023-02-18T00:43:46;101019.16;;;7.01;100.00
64521;BME280;50896;46.714;17.322;2023-02-18T00:46:13;101001.22;;;7.05;100.00
64521;BME280;50896;46.714;17.322;2023-02-18T00:48:40;101031.75;;;7.20;100.00
64521;BME280;50896;46.714;17.322;2023-02-18T00:51:09;101020.81;;;7.13;100.00
64521;BME280;50896;46.714;17.322;2023-02-18T00:53:36;100981.69;;;6.96;100.00
64521;BME280;50896;46.714;17.322;2023-02-18T00:56:04;100993.78;;;7.10;100.00
64521;BME280;50896;46.714;17.322;2023-02-18T00:58:31;101017.53;;;7.21;100.00
64521;BME280;50896;46.714;17.322;2023-02-18T01:00:58;101019.00;;;7.14;100.00
64521;BME280;50896;46.714;17.322;2023-02-18T01:03:25;101011.44;;;7.09;100.00
64521;BME280;50896;46.714;17.322;2023-02-18T01:05:52;101019.63;;;7.06;100.00
64521;BME280;50896;46.714;17.322;2023-02-18T01:08:21;100994.28;;;7.04;100.00
64521;BME280;50896;46.714;17.322;2023-02-18T01:10:52;100979.97;;;6.95;100.00
64521;BME280;50896;46.714;17.322;2023-02-18T01:13:20;100979.16;;;6.94;100.00
64521;BME280;50896;46.714;17.322;2023-02-18T01:15:47;101003.31;;;7.01;100.00
64521;BME280;50896;46.714;17.322;2023-02-18T01:18:15;101008.84;;;6.98;100.00
64521;BME280;50896;46.714;17.322;2023-02-18T01:20:43;101007.97;;;6.97;100.00
64521;BME280;50896;46.714;17.322;2023-02-18T01:23:12;101000.91;;;6.98;100.00
64521;BME280;50896;46.714;17.322;2023-02-18T01:25:39;101013.53;;;6.94;100.00
64521;BME280;50896;46.714;17.322;2023-02-18T01:28:08;100994.34;;;6.81;100.00
64521;BME280;50896;46.714;17.322;2023-02-18T01:30:36;100996.34;;;6.89;100.00
64521;BME280;50896;46.714;17.322;2023-02-18T01:33:04;100973.69;;;6.75;100.00
64521;BME280;50896;46.714;17.322;2023-02-18T01:35:31;100995.88;;;6.83;100.00
64521;BME280;50896;46.714;17.322;2023-02-18T01:37:58;100977.28;;;6.74;100.00
64521;BME280;50896;46.714;17.322;2023-02-18T01:40:27;100979.78;;;6.75;100.00
64521;BME280;50896;46.714;17.322;2023-02-18T01:42:54;100994.09;;;6.84;100.00
64521;BME280;50896;46.714;17.322;2023-02-18T01:48:46;100991.31;;;6.86;100.00
64521;BME280;50896;46.714;17.322;2023-02-18T01:51:47;100997.34;;;6.76;100.00
64521;BME280;50896;46.714;17.322;2023-02-18T01:54:24;100996.50;;;6.76;100.00
64521;BME280;50896;46.714;17.322;2023-02-18T01:59:39;100986.50;;;6.79;100.00
64521;BME280;50896;46.714;17.322;2023-02-18T02:02:11;100977.41;;;6.72;100.00
64521;BME280;50896;46.714;17.322;2023-02-18T02:04:39;100978.72;;;6.78;100.00
64521;BME280;50896;46.714;17.322;2023-02-18T02:07:08;100985.81;;;6.77;100.00
64521;BME280;50896;46.714;17.322;2023-02-18T02:09:36;100984.84;;;6.78;100.00
64521;BME280;50896;46.714;17.322;2023-02-18T02:12:24;100989.78;;;6.72;100.00
64521;BME280;50896;46.714;17.322;2023-02-18T02:15:05;100991.38;;;6.63;100.00
64521;BME280;50896;46.714;17.322;2023-02-18T02:23:12;100982.25;;;6.67;100.00
64521;BME280;50896;46.714;17.322;2023-02-18T02:46:02;100969.31;;;6.07;100.00
64521;BME280;50896;46.714;17.322;2023-02-18T02:51:15;100974.34;;;5.99;100.00
64521;BME280;50896;46.714;17.322;2023-02-18T02:53:44;100952.13;;;5.90;100.00
64521;BME280;50896;46.714;17.322;2023-02-18T02:56:17;100971.91;;;5.96;100.00
64521;BME280;50896;46.714;17.322;2023-02-18T02:58:47;100946.94;;;5.89;100.00
64521;BME280;50896;46.714;17.322;2023-02-18T03:12:39;100949.38;;;6.26;100.00
64521;BME280;50896;46.714;17.322;2023-02-18T03:15:28;100954.16;;;6.32;100.00
64521;BME280;50896;46.714;17.322;2023-02-18T03:18:21;100941.34;;;6.27;100.00
64521;BME280;50896;46.714;17.322;2023-02-18T03:21:11;100926.44;;;6.15;100.00
64521;BME280;50896;46.714;17.322;2023-02-18T03:26:29;100947.81;;;6.23;100.00
64521;BME280;50896;46.714;17.322;2023-02-18T03:29:00;100932.72;;;6.14;100.00
64521;BME280;50896;46.714;17.322;2023-02-18T03:31:29;100949.38;;;6.26;100.00
64521;BME280;50896;46.714;17.322;2023-02-18T03:34:10;100956.47;;;6.25;100.00
64521;BME280;50896;46.714;17.322;2023-02-18T03:36:41;100961.25;;;6.31;100.00
64521;BME280;50896;46.714;17.322;2023-02-18T03:39:19;100940.84;;;6.22;100.00
64521;BME280;50896;46.714;17.322;2023-02-18T03:41:47;100964.38;;;6.37;100.00
64521;BME280;50896;46.714;17.322;2023-02-18T03:44:15;100958.63;;;6.31;100.00
64521;BME280;50896;46.714;17.322;2023-02-18T03:46:43;100964.63;;;6.33;100.00
64521;BME280;50896;46.714;17.322;2023-02-18T03:49:12;100956.81;;;6.32;100.00
64521;BME280;50896;46.714;17.322;2023-02-18T03:51:40;100957.03;;;6.40;100.00
64521;BME280;50896;46.714;17.322;2023-02-18T03:54:08;100935.69;;;6.21;100.00
64521;BME280;50896;46.714;17.322;2023-02-18T03:56:36;100962.09;;;6.32;100.00
64521;BME280;50896;46.714;17.322;2023-02-18T03:59:03;100963.28;;;6.28;100.00
64521;BME280;50896;46.714;17.322;2023-02-18T04:01:30;100966.41;;;6.22;100.00
64521;BME280;50896;46.714;17.322;2023-02-18T04:03:57;100974.09;;;6.13;100.00
64521;BME280;50896;46.714;17.322;2023-02-18T04:06:24;100975.78;;;6.14;100.00
64521;BME280;50896;46.714;17.322;2023-02-18T04:08:51;100971.59;;;6.12;100.00
64521;BME280;50896;46.714;17.322;2023-02-18T04:11:18;100959.59;;;6.08;100.00
64521;BME280;50896;46.714;17.322;2023-02-18T04:13:45;100979.63;;;5.99;100.00
64521;BME280;50896;46.714;17.322;2023-02-18T04:16:13;100979.22;;;5.92;100.00
64521;BME280;50896;46.714;17.322;2023-02-18T04:18:40;100978.50;;;5.90;100.00
64521;BME280;50896;46.714;17.322;2023-02-18T04:21:07;100975.63;;;5.93;100.00
64521;BME280;50896;46.714;17.322;2023-02-18T04:23:33;100978.84;;;5.86;100.00
64521;BME280;50896;46.714;17.322;2023-02-18T04:26:00;100955.31;;;5.71;100.00
64521;BME280;50896;46.714;17.322;2023-02-18T04:28:27;100969.97;;;5.75;100.00
64521;BME280;50896;46.714;17.322;2023-02-18T04:30:54;100977.06;;;5.86;100.00
64521;BME280;50896;46.714;17.322;2023-02-18T04:33:20;100973.09;;;5.80;100.00
64521;BME280;50896;46.714;17.322;2023-02-18T04:35:47;100976.94;;;5.76;100.00
64521;BME280;50896;46.714;17.322;2023-02-18T04:38:14;100986.50;;;5.77;100.00
64521;BME280;50896;46.714;17.322;2023-02-18T04:40:41;100980.53;;;5.75;100.00
64521;BME280;50896;46.714;17.322;2023-02-18T04:43:08;100973.78;;;5.71;100.00
64521;BME280;50896;46.714;17.322;2023-02-18T04:45:35;100993.22;;;5.70;100.00
64521;BME280;50896;46.714;17.322;2023-02-18T04:48:02;100992.50;;;5.68;100.00
64521;BME280;50896;46.714;17.322;2023-02-18T04:50:29;100998.97;;;5.64;100.00
64521;BME280;50896;46.714;17.322;2023-02-18T04:52:55;100984.56;;;5.57;100.00
64521;BME280;50896;46.714;17.322;2023-02-18T04:55:22;100989.84;;;5.68;100.00
64521;BME280;50896;46.714;17.322;2023-02-18T04:57:49;101002.06;;;5.69;100.00
64521;BME280;50896;46.714;17.322;2023-02-18T05:00:19;100992.97;;;5.73;100.00
64521;BME280;50896;46.714;17.322;2023-02-18T05:02:46;101006.63;;;5.67;100.00
64521;BME280;50896;46.714;17.322;2023-02-18T05:05:13;100989.84;;;5.57;100.00
64521;BME280;50896;46.714;17.322;2023-02-18T05:07:40;101014.78;;;5.64;100.00
64521;BME280;50896;46.714;17.322;2023-02-18T05:10:14;101018.63;;;5.60;100.00
64521;BME280;50896;46.714;17.322;2023-02-18T05:12:41;101027.72;;;5.56;100.00
64521;BME280;50896;46.714;17.322;2023-02-18T05:15:09;101029.50;;;5.55;100.00
64521;BME280;50896;46.714;17.322;2023-02-18T05:17:36;101034.06;;;5.53;100.00
64521;BME280;50896;46.714;17.322;2023-02-18T05:20:03;101039.88;;;5.45;100.00
64521;BME280;50896;46.714;17.322;2023-02-18T05:22:30;101036.66;;;5.42;100.00
64521;BME280;50896;46.714;17.322;2023-02-18T05:24:57;101032.28;;;5.29;100.00
64521;BME280;50896;46.714;17.322;2023-02-18T05:27:24;101036.09;;;5.25;100.00
64521;BME280;50896;46.714;17.322;2023-02-18T05:29:51;101043.16;;;5.25;100.00
64521;BME280;50896;46.714;17.322;2023-02-18T05:32:17;101051.44;;;5.31;100.00
64521;BME280;50896;46.714;17.322;2023-02-18T05:34:44;101037.03;;;5.24;100.00
64521;BME280;50896;46.714;17.322;2023-02-18T05:37:11;101042.00;;;5.29;100.00
64521;BME280;50896;46.714;17.322;2023-02-18T05:39:40;101036.59;;;5.30;100.00
64521;BME280;50896;46.714;17.322;2023-02-18T05:42:07;101047.63;;;5.36;100.00
64521;BME280;50896;46.714;17.322;2023-02-18T05:44:34;101017.50;;;5.27;100.00
64521;BME280;50896;46.714;17.322;2023-02-18T05:47:06;101032.91;;;5.33;100.00
64521;BME280;50896;46.714;17.322;2023-02-18T05:49:38;101029.28;;;5.34;100.00
64521;BME280;50896;46.714;17.322;2023-02-18T05:52:05;101028.06;;;5.27;100.00
64521;BME280;50896;46.714;17.322;2023-02-18T05:54:32;101011.25;;;5.17;100.00
64521;BME280;50896;46.714;17.322;2023-02-18T05:57:00;101022.84;;;5.14;100.00
64521;BME280;50896;46.714;17.322;2023-02-18T05:59:27;101035.56;;;5.20;100.00
64521;BME280;50896;46.714;17.322;2023-02-18T06:01:54;101050.56;;;5.20;100.00
64521;BME280;50896;46.714;17.322;2023-02-18T06:04:21;101028.78;;;5.05;100.00
64521;BME280;50896;46.714;17.322;2023-02-18T06:06:48;101062.06;;;5.19;100.00
64521;BME280;50896;46.714;17.322;2023-02-18T06:09:15;101063.75;;;5.20;100.00
64521;BME280;50896;46.714;17.322;2023-02-18T06:11:42;101067.94;;;5.22;100.00
64521;BME280;50896;46.714;17.322;2023-02-18T06:14:09;101065.53;;;5.19;100.00
64521;BME280;50896;46.714;17.322;2023-02-18T06:16:36;101059.53;;;5.17;100.00
64521;BME280;50896;46.714;17.322;2023-02-18T06:19:03;101059.41;;;5.19;100.00
64521;BME280;50896;46.714;17.322;2023-02-18T06:21:29;101057.13;;;5.14;100.00
64521;BME280;50896;46.714;17.322;2023-02-18T06:23:56;101059.53;;;5.17;100.00
64521;BME280;50896;46.714;17.322;2023-02-18T06:26:23;101065.75;;;5.16;100.00
64521;BME280;50896;46.714;17.322;2023-02-18T06:28:50;101054.84;;;5.09;100.00
64521;BME280;50896;46.714;17.322;2023-02-18T06:31:17;101064.19;;;5.13;100.00
64521;BME280;50896;46.714;17.322;2023-02-18T06:33:44;101072.81;;;5.16;100.00
64521;BME280;50896;46.714;17.322;2023-02-18T06:36:11;101078.94;;;5.16;100.00
64521;BME280;50896;46.714;17.322;2023-02-18T06:38:41;101077.25;;;5.15;100.00
64521;BME280;50896;46.714;17.322;2023-02-18T06:41:10;101079.16;;;5.13;100.00
64521;BME280;50896;46.714;17.322;2023-02-18T06:43:37;101087.59;;;5.18;100.00
64521;BME280;50896;46.714;17.322;2023-02-18T06:46:04;101077.75;;;5.20;100.00
64521;BME280;50896;46.714;17.322;2023-02-18T06:48:32;101088.69;;;5.27;100.00
64521;BME280;50896;46.714;17.322;2023-02-18T06:50:59;101082.88;;;5.35;100.00
64521;BME280;50896;46.714;17.322;2023-02-18T06:53:26;101094.66;;;5.42;100.00
64521;BME280;50896;46.714;17.322;2023-02-18T06:55:52;101099.59;;;5.46;100.00
64521;BME280;50896;46.714;17.322;2023-02-18T06:58:19;101099.25;;;5.51;100.00
64521;BME280;50896;46.714;17.322;2023-02-18T07:00:46;101067.72;;;5.50;100.00
64521;BME280;50896;46.714;17.322;2023-02-18T07:03:14;101097.06;;;5.69;100.00
64521;BME280;50896;46.714;17.322;2023-02-18T07:05:41;101074.13;;;5.58;100.00
64521;BME280;50896;46.714;17.322;2023-02-18T07:08:08;101101.03;;;5.75;100.00
64521;BME280;50896;46.714;17.322;2023-02-18T07:10:35;101089.66;;;5.74;100.00
64521;BME280;50896;46.714;17.322;2023-02-18T07:13:03;101084.47;;;5.73;100.00
64521;BME280;50896;46.714;17.322;2023-02-18T07:15:30;101095.81;;;5.86;100.00
64521;BME280;50896;46.714;17.322;2023-02-18T07:17:57;101095.09;;;5.95;100.00
64521;BME280;50896;46.714;17.322;2023-02-18T07:20:24;101105.78;;;5.94;100.00
64521;BME280;50896;46.714;17.322;2023-02-18T07:22:51;101096.53;;;5.88;100.00
64521;BME280;50896;46.714;17.322;2023-02-18T07:25:18;101100.56;;;6.05;100.00
64521;BME280;50896;46.714;17.322;2023-02-18T07:27:48;101102.97;;;6.08;100.00
64521;BME280;50896;46.714;17.322;2023-02-18T07:30:15;101096.50;;;6.12;100.00
64521;BME280;50896;46.714;17.322;2023-02-18T07:32:42;101105.13;;;6.03;100.00
64521;BME280;50896;46.714;17.322;2023-02-18T07:35:12;101112.19;;;6.03;100.00
64521;BME280;50896;46.714;17.322;2023-02-18T07:37:43;101107.41;;;6.08;100.00
64521;BME280;50896;46.714;17.322;2023-02-18T07:40:12;101078.38;;;6.08;100.00
64521;BME280;50896;46.714;17.322;2023-02-18T07:42:39;101104.00;;;6.41;100.00
64521;BME280;50896;46.714;17.322;2023-02-18T07:45:07;101112.88;;;6.52;100.00
64521;BME280;50896;46.714;17.322;2023-02-18T07:47:34;101097.88;;;6.41;100.00
64521;BME280;50896;46.714;17.322;2023-02-18T07:50:01;101118.78;;;6.44;100.00
64521;BME280;50896;46.714;17.322;2023-02-18T07:52:28;101124.56;;;6.49;100.00
64521;BME280;50896;46.714;17.322;2023-02-18T07:54:55;101108.34;;;6.42;100.00
64521;BME280;50896;46.714;17.322;2023-02-18T07:57:22;101122.03;;;6.59;100.00
64521;BME280;50896;46.714;17.322;2023-02-18T07:59:49;101123.00;;;6.69;100.00
64521;BME280;50896;46.714;17.322;2023-02-18T08:02:18;101125.41;;;6.72;100.00
64521;BME280;50896;46.714;17.322;2023-02-18T08:04:46;101117.09;;;6.65;100.00
64521;BME280;50896;46.714;17.322;2023-02-18T08:07:15;101121.06;;;6.71;100.00
64521;BME280;50896;46.714;17.322;2023-02-18T08:09:42;101123.72;;;6.71;100.00
64521;BME280;50896;46.714;17.322;2023-02-18T08:12:09;101129.22;;;6.79;100.00
64521;BME280;50896;46.714;17.322;2023-02-18T08:14:36;101130.69;;;6.83;100.00
64521;BME280;50896;46.714;17.322;2023-02-18T08:17:03;101123.84;;;6.81;100.00
64521;BME280;50896;46.714;17.322;2023-02-18T08:19:29;101127.81;;;6.87;100.00
64521;BME280;50896;46.714;17.322;2023-02-18T08:22:00;101124.78;;;7.03;100.00
64521;BME280;50896;46.714;17.322;2023-02-18T08:24:27;101113.84;;;6.96;100.00
64521;BME280;50896;46.714;17.322;2023-02-18T08:26:54;101101.84;;;6.92;100.00
64521;BME280;50896;46.714;17.322;2023-02-18T08:29:26;101112.28;;;6.93;100.00
64521;BME280;50896;46.714;17.322;2023-02-18T08:31:53;101106.53;;;6.88;100.00
64521;BME280;50896;46.714;17.322;2023-02-18T08:34:22;101113.50;;;6.89;100.00
64521;BME280;50896;46.714;17.322;2023-02-18T08:36:49;101128.50;;;7.00;100.00
64521;BME280;50896;46.714;17.322;2023-02-18T08:39:16;101130.31;;;7.11;100.00
64521;BME280;50896;46.714;17.322;2023-02-18T08:41:43;101130.31;;;7.11;100.00
64521;BME280;50896;46.714;17.322;2023-02-18T08:44:09;101127.41;;;7.14;100.00
64521;BME280;50896;46.714;17.322;2023-02-18T08:46:37;101126.59;;;7.13;100.00
64521;BME280;50896;46.714;17.322;2023-02-18T08:49:04;101123.09;;;7.24;100.00
64521;BME280;50896;46.714;17.322;2023-02-18T08:51:31;101103.50;;;7.15;100.00
64521;BME280;50896;46.714;17.322;2023-02-18T08:53:57;101102.78;;;7.13;100.00
64521;BME280;50896;46.714;17.322;2023-02-18T08:56:25;101094.13;;;7.11;100.00
64521;BME280;50896;46.714;17.322;2023-02-18T08:58:52;101101.19;;;7.22;100.00
64521;BME280;50896;46.714;17.322;2023-02-18T09:01:18;101120.78;;;7.31;100.00
64521;BME280;50896;46.714;17.322;2023-02-18T09:03:46;101136.03;;;7.39;100.00
64521;BME280;50896;46.714;17.322;2023-02-18T09:06:14;101125.56;;;7.48;100.00
64521;BME280;50896;46.714;17.322;2023-02-18T09:08:41;101123.81;;;7.59;100.00
64521;BME280;50896;46.714;17.322;2023-02-18T09:11:09;101104.13;;;7.51;100.00
64521;BME280;50896;46.714;17.322;2023-02-18T09:13:37;101111.53;;;7.69;100.00
64521;BME280;50896;46.714;17.322;2023-02-18T09:16:06;101102.03;;;7.66;100.00
64521;BME280;50896;46.714;17.322;2023-02-18T09:18:34;101121.06;;;7.93;100.00
64521;BME280;50896;46.714;17.322;2023-02-18T09:21:03;101101.09;;;7.89;100.00
64521;BME280;50896;46.714;17.322;2023-02-18T09:23:32;101116.41;;;8.06;100.00
64521;BME280;50896;46.714;17.322;2023-02-18T09:25:59;101104.13;;;8.05;100.00
64521;BME280;50896;46.714;17.322;2023-02-18T09:28:29;101103.03;;;8.08;100.00
64521;BME280;50896;46.714;17.322;2023-02-18T09:30:55;101103.28;;;8.26;100.00
64521;BME280;50896;46.714;17.322;2023-02-18T09:33:22;101077.56;;;8.37;98.69
64521;BME280;50896;46.714;17.322;2023-02-18T09:35:49;101092.56;;;8.48;96.46
64521;BME280;50896;46.714;17.322;2023-02-18T09:38:16;101105.09;;;8.77;92.36
64521;BME280;50896;46.714;17.322;2023-02-18T09:40:51;101095.53;;;8.96;88.49
64521;BME280;50896;46.714;17.322;2023-02-18T09:43:33;101087.47;;;8.97;88.22
64521;BME280;50896;46.714;17.322;2023-02-18T09:46:02;101103.00;;;9.21;86.99
64521;BME280;50896;46.714;17.322;2023-02-18T09:48:32;101100.81;;;9.27;86.37
64521;BME280;50896;46.714;17.322;2023-02-18T09:51:01;101102.34;;;9.39;83.34
64521;BME280;50896;46.714;17.322;2023-02-18T09:53:28;101098.16;;;9.46;83.22
64521;BME280;50896;46.714;17.322;2023-02-18T09:55:56;101093.25;;;9.51;82.97
64521;BME280;50896;46.714;17.322;2023-02-18T09:58:26;101096.94;;;9.60;81.74
64521;BME280;50896;46.714;17.322;2023-02-18T10:04:00;101084.63;;;9.69;81.26
64521;BME280;50896;46.714;17.322;2023-02-18T10:06:32;101070.78;;;9.75;80.14
64521;BME280;50896;46.714;17.322;2023-02-18T10:09:24;101079.44;;;9.87;80.44
64521;BME280;50896;46.714;17.322;2023-02-18T10:12:01;101078.03;;;9.92;80.74
64521;BME280;50896;46.714;17.322;2023-02-18T10:14:33;101078.31;;;9.99;79.58
64521;BME280;50896;46.714;17.322;2023-02-18T10:17:01;101067.41;;;9.92;79.79
64521;BME280;50896;46.714;17.322;2023-02-18T10:19:35;101070.16;;;10.20;77.32
64521;BME280;50896;46.714;17.322;2023-02-18T10:22:06;101058.38;;;10.33;76.07
64521;BME280;50896;46.714;17.322;2023-02-18T10:24:39;101056.00;;;10.39;74.82
64521;BME280;50896;46.714;17.322;2023-02-18T10:27:08;101058.03;;;10.55;73.40
64521;BME280;50896;46.714;17.322;2023-02-18T10:29:35;101047.31;;;10.47;74.60
64521;BME280;50896;46.714;17.322;2023-02-18T10:32:30;101046.09;;;10.69;74.45
64521;BME280;50896;46.714;17.322;2023-02-18T10:35:04;101048.13;;;10.75;74.09
64521;BME280;50896;46.714;17.322;2023-02-18T10:43:20;101038.25;;;10.96;71.56
64521;BME280;50896;46.714;17.322;2023-02-18T10:46:01;101035.53;;;11.05;71.75
64521;BME280;50896;46.714;17.322;2023-02-18T10:51:25;101041.56;;;10.98;72.79
64521;BME280;50896;46.714;17.322;2023-02-18T10:53:54;101036.56;;;10.94;72.71
64521;BME280;50896;46.714;17.322;2023-02-18T10:56:40;101020.28;;;10.98;72.77
64521;BME280;50896;46.714;17.322;2023-02-18T11:01:38;101013.91;;;10.90;71.74
64521;BME280;50896;46.714;17.322;2023-02-18T11:04:12;101004.41;;;10.88;72.84
64521;BME280;50896;46.714;17.322;2023-02-18T11:06:43;101010.53;;;10.88;72.52
64521;BME280;50896;46.714;17.322;2023-02-18T11:12:21;101007.81;;;10.80;73.60
64521;BME280;50896;46.714;17.322;2023-02-18T11:17:42;101002.19;;;10.83;74.48
64521;BME280;50896;46.714;17.322;2023-02-18T11:22:56;100970.50;;;11.26;71.11
64521;BME280;50896;46.714;17.322;2023-02-18T11:25:30;100967.22;;;12.29;66.95
64521;BME280;50896;46.714;17.322;2023-02-18T11:28:04;100946.00;;;13.94;61.21
64521;BME280;50896;46.714;17.322;2023-02-18T11:30:33;100946.13;;;14.88;55.47
64521;BME280;50896;46.714;17.322;2023-02-18T11:35:34;100932.25;;;15.46;53.15
64521;BME280;50896;46.714;17.322;2023-02-18T11:38:03;100931.06;;;14.87;54.96
64521;BME280;50896;46.714;17.322;2023-02-18T11:40:40;100928.56;;;14.54;55.44
64521;BME280;50896;46.714;17.322;2023-02-18T11:43:17;100919.38;;;13.69;58.88
64521;BME280;50896;46.714;17.322;2023-02-18T11:45:45;100925.69;;;12.77;60.87
64521;BME280;50896;46.714;17.322;2023-02-18T11:48:16;100928.25;;;12.36;63.48
64521;BME280;50896;46.714;17.322;2023-02-18T11:50:44;100924.19;;;12.16;65.19
64521;BME280;50896;46.714;17.322;2023-02-18T11:53:32;100925.97;;;11.80;65.26
64521;BME280;50896;46.714;17.322;2023-02-18T11:56:02;100920.56;;;11.64;66.52
64521;BME280;50896;46.714;17.322;2023-02-18T11:58:42;100912.66;;;11.54;66.98
64521;BME280;50896;46.714;17.322;2023-02-18T12:01:26;100901.41;;;11.42;67.85
64521;BME280;50896;46.714;17.322;2023-02-18T12:04:18;100902.06;;;11.36;67.42
64521;BME280;50896;46.714;17.322;2023-02-18T12:06:56;100893.19;;;11.27;68.81
64521;BME280;50896;46.714;17.322;2023-02-18T12:09:37;100882.16;;;11.22;69.05
64521;BME280;50896;46.714;17.322;2023-02-18T12:14:37;100863.09;;;11.09;70.05
64521;BME280;50896;46.714;17.322;2023-02-18T12:28:11;100849.44;;;11.04;72.78
64521;BME280;50896;46.714;17.322;2023-02-18T12:44:38;100794.91;;;10.64;74.52
64521;BME280;50896;46.714;17.322;2023-02-18T12:49:51;100808.78;;;10.75;73.78
64521;BME280;50896;46.714;17.322;2023-02-18T12:57:48;100800.06;;;10.65;75.15
64521;BME280;50896;46.714;17.322;2023-02-18T13:09:26;100783.00;;;10.50;76.39
64521;BME280;50896;46.714;17.322;2023-02-18T13:17:18;100786.72;;;10.39;77.53
64521;BME280;50896;46.714;17.322;2023-02-18T13:19:52;100785.34;;;10.35;77.08
64521;BME280;50896;46.714;17.322;2023-02-18T13:22:22;100771.47;;;10.41;77.17
64521;BME280;50896;46.714;17.322;2023-02-18T13:24:51;100771.56;;;10.57;76.44
64521;BME280;50896;46.714;17.322;2023-02-18T13:32:35;100758.00;;;10.60;75.31
64521;BME280;50896;46.714;17.322;2023-02-18T13:35:38;100755.09;;;10.72;74.54
64521;BME280;50896;46.714;17.322;2023-02-18T13:41:00;100737.66;;;10.51;75.71
64521;BME280;50896;46.714;17.322;2023-02-18T13:43:33;100758.81;;;10.61;75.43
64521;BME280;50896;46.714;17.322;2023-02-18T13:51:44;100737.94;;;10.66;75.13
64521;BME280;50896;46.714;17.322;2023-02-18T13:56:42;100740.84;;;10.55;75.47
64521;BME280;50896;46.714;17.322;2023-02-18T13:59:18;100727.69;;;10.53;74.71
64521;BME280;50896;46.714;17.322;2023-02-18T14:01:47;100732.00;;;10.54;74.27
64521;BME280;50896;46.714;17.322;2023-02-18T14:07:22;100724.34;;;10.51;74.32
64521;BME280;50896;46.714;17.322;2023-02-18T14:09:58;100723.88;;;10.56;74.22
64521;BME280;50896;46.714;17.322;2023-02-18T14:12:39;100716.97;;;10.45;75.35
64521;BME280;50896;46.714;17.322;2023-02-18T14:20:31;100719.13;;;10.41;75.04
64521;BME280;50896;46.714;17.322;2023-02-18T14:22:58;100715.66;;;10.41;75.75
64521;BME280;50896;46.714;17.322;2023-02-18T14:25:38;100714.53;;;10.34;76.85
64521;BME280;50896;46.714;17.322;2023-02-18T14:28:36;100711.22;;;10.32;77.21
64521;BME280;50896;46.714;17.322;2023-02-18T14:31:24;100699.53;;;10.24;77.89
64521;BME280;50896;46.714;17.322;2023-02-18T14:42:37;100688.44;;;10.11;80.52
64521;BME280;50896;46.714;17.322;2023-02-18T14:48:10;100678.63;;;10.12;80.10
64521;BME280;50896;46.714;17.322;2023-02-18T14:50:47;100652.16;;;10.02;80.09
64521;BME280;50896;46.714;17.322;2023-02-18T14:53:22;100658.00;;;10.05;80.18
64521;BME280;50896;46.714;17.322;2023-02-18T14:55:53;100665.75;;;9.99;82.29
64521;BME280;50896;46.714;17.322;2023-02-18T15:00:56;100648.91;;;10.08;81.19
64521;BME280;50896;46.714;17.322;2023-02-18T15:03:26;100629.84;;;9.95;81.31
64521;BME280;50896;46.714;17.322;2023-02-18T15:05:53;100646.47;;;9.97;81.41
64521;BME280;50896;46.714;17.322;2023-02-18T15:08:22;100630.78;;;9.85;80.84
64521;BME280;50896;46.714;17.322;2023-02-18T15:11:01;100642.63;;;9.91;81.41
64521;BME280;50896;46.714;17.322;2023-02-18T15:13:33;100633.06;;;9.80;81.55
64521;BME280;50896;46.714;17.322;2023-02-18T15:16:05;100638.38;;;9.80;82.64
64521;BME280;50896;46.714;17.322;2023-02-18T15:18:39;100621.53;;;9.71;83.71
64521;BME280;50896;46.714;17.322;2023-02-18T15:21:29;100631.59;;;9.68;84.70
64521;BME280;50896;46.714;17.322;2023-02-18T15:26:31;100615.16;;;9.64;84.96
64521;BME280;50896;46.714;17.322;2023-02-18T15:29:01;100609.63;;;9.57;85.26
64521;BME280;50896;46.714;17.322;2023-02-18T15:31:29;100612.13;;;9.59;84.86
64521;BME280;50896;46.714;17.322;2023-02-18T15:33:57;100601.25;;;9.52;84.07
64521;BME280;50896;46.714;17.322;2023-02-18T15:36:25;100585.72;;;9.39;85.34
64521;BME280;50896;46.714;17.322;2023-02-18T15:38:53;100604.97;;;9.41;85.98
64521;BME280;50896;46.714;17.322;2023-02-18T15:41:22;100603.00;;;9.44;85.22